EST,Max TemperatureF,Mean TemperatureF,Min TemperatureF,Max Dew PointF,MeanDew PointF,Min DewpointF,Max Humidity, Mean Humidity, Min Humidity, Max Sea Level PressureIn, Mean Sea Level PressureIn, Min Sea Level PressureIn, Max VisibilityMiles, Mean VisibilityMiles, Min VisibilityMiles, Max Wind SpeedMPH, Mean Wind SpeedMPH, Max Gust SpeedMPH,PrecipitationIn, CloudCover, Events, WindDirDegrees
2014-2-1,33,24,14,31,24,12,96,79,61,30.24,30.01,29.78,10,4,0,22,7,31,0.04,7,Fog-Snow,210
2014-2-2,33,28,22,32,27,20,100,94,88,30.12,29.90,29.76,10,4,1,21,8,29,0.01,8,Snow,242
2014-2-3,24,14,4,20,15,6,92,83,74,30.31,30.15,30.06,10,6,2,7,1,11,0.01,8,Snow,13
2014-2-4,20,13,6,11,8,2,92,77,62,30.45,30.37,30.28,10,9,3,13,5,20,T,4,Snow,227
2014-2-5,16,12,7,13,11,4,88,84,80,30.26,29.92,29.69,10,2,0,17,7,21,0.27,8,Fog-Snow,42
2014-2-6,13,2,-9,7,0,-11,95,78,61,30.26,30.12,29.98,10,7,1,13,6,17,T,5,Snow,239
2014-2-7,13,11,8,8,5,3,91,79,67,30.15,30.06,29.98,10,3,0,20,10,28,0.01,8,Fog-Snow,235
2014-2-8,14,10,6,7,4,1,88,78,67,30.22,30.12,30.03,10,4,1,14,8,23,T,8,Snow,238
2014-2-9,17,6,-5,11,7,-7,95,75,54,30.14,29.97,29.83,10,4,1,10,2,13,0.01,7,Snow,252
2014-2-10,15,4,-7,7,1,-10,96,85,73,30.19,29.99,29.83,10,3,1,14,4,20,T,7,Snow,247
2014-2-11,10,-3,-17,1,-5,-21,87,75,63,30.50,30.23,30.07,10,5,1,13,3,19,T,6,Snow,261
2014-2-12,24,-3,-30,3,-12,-32,91,65,39,30.58,30.43,30.23,10,10,9,21,3,25,T,0,Snow,205
2014-2-13,24,7,-10,18,12,-11,91,77,62,30.21,29.75,29.29,10,6,1,20,8,24,T,7,Snow,49
2014-2-14,22,19,16,18,15,13,92,85,77,29.67,29.28,29.09,10,3,0,15,9,25,0.19,8,Fog-Snow,281
2014-2-15,26,17,8,22,18,8,92,83,74,29.79,29.70,29.62,10,4,0,9,3,15,0.02,8,Fog-Snow,243
2014-2-16,15,6,-3,9,0,-11,95,70,44,30.11,29.80,29.68,10,7,2,16,7,23,T,4,Snow,259
2014-2-17,17,-2,-21,-7,-12,-26,92,63,33,30.38,30.31,30.14,10,9,2,10,3,13,0.00,0,,240
2014-2-18,28,8,-12,21,15,-14,86,57,28,30.19,29.92,29.81,10,6,2,20,8,30,T,7,Snow,212
2014-2-19,35,25,15,31,23,14,92,74,56,29.95,29.77,29.59,10,8,2,20,6,23,T,7,Snow,230
2014-2-20,38,28,18,32,26,18,92,76,59,30.13,30.05,29.90,10,6,2,16,6,21,T,6,Snow,219
2014-2-21,42,34,26,39,33,26,96,89,82,29.95,29.70,29.52,10,5,0,21,8,29,0.51,8,Fog-Rain-Snow,193
2014-2-22,38,31,23,25,18,8,85,57,29,29.86,29.76,29.69,10,9,3,35,16,47,T,3,Snow,229
2014-2-23,35,28,21,18,14,11,68,53,38,29.89,29.84,29.79,10,10,7,24,13,37,T,2,,239
2014-2-24,21,15,9,14,6,1,80,69,58,29.94,29.77,29.69,10,4,0,23,10,33,T,8,Snow,257
2014-2-25,13,7,0,5,2,-1,95,78,61,29.95,29.83,29.74,10,4,1,16,7,26,T,8,Snow,248
2014-2-26,10,1,-9,6,-5,-14,88,63,37,29.82,29.70,29.60,10,4,0,28,9,40,T,6,Fog-Snow,245
2014-2-27,13,3,-8,6,-1,-14,83,66,49,29.91,29.53,29.37,10,5,0,25,9,37,T,7,Snow,241
2014-2-28,8,-3,-15,-8,-13,-20,83,57,31,30.40,30.16,29.81,10,7,2,14,5,19,0.00,4,,237